sensor_id;sensor_type;location;lat;lon;timestamp;P1;durP1;ratioP1;P2;durP2;ratioP2
19951;SDS011;10137;49.406;19.484;2023-04-25T00:01:39;7.13;;;4.23;;
19951;SDS011;10137;49.406;19.484;2023-04-25T00:04:09;6.10;;;4.67;;
19951;SDS011;10137;49.406;19.484;2023-04-25T00:06:39;8.60;;;5.40;;
19951;SDS011;10137;49.406;19.484;2023-04-25T00:09:09;5.80;;;4.57;;
19951;SDS011;10137;49.406;19.484;2023-04-25T00:11:37;6.60;;;4.50;;
19951;SDS011;10137;49.406;19.484;2023-04-25T00:14:06;7.90;;;5.27;;
19951;SDS011;10137;49.406;19.484;2023-04-25T00:16:34;6.40;;;4.93;;
19951;SDS011;10137;49.406;19.484;2023-04-25T00:19:02;5.80;;;4.63;;
19951;SDS011;10137;49.406;19.484;2023-04-25T00:21:30;5.23;;;3.83;;
19951;SDS011;10137;49.406;19.484;2023-04-25T00:23:59;4.47;;;3.80;;
19951;SDS011;10137;49.406;19.484;2023-04-25T00:26:29;4.57;;;3.50;;
19951;SDS011;10137;49.406;19.484;2023-04-25T00:28:56;3.93;;;3.30;;
19951;SDS011;10137;49.406;19.484;2023-04-25T00:31:25;5.43;;;3.73;;
19951;SDS011;10137;49.406;19.484;2023-04-25T00:33:53;4.73;;;3.67;;
19951;SDS011;10137;49.406;19.484;2023-04-25T00:36:20;9.10;;;5.37;;
19951;SDS011;10137;49.406;19.484;2023-04-25T00:38:48;10.37;;;5.63;;
19951;SDS011;10137;49.406;19.484;2023-04-25T00:41:16;5.63;;;3.50;;
19951;SDS011;10137;49.406;19.484;2023-04-25T00:43:47;8.97;;;4.80;;
19951;SDS011;10137;49.406;19.484;2023-04-25T00:46:15;3.37;;;2.87;;
19951;SDS011;10137;49.406;19.484;2023-04-25T00:48:42;4.07;;;3.43;;
19951;SDS011;10137;49.406;19.484;2023-04-25T00:51:12;5.27;;;4.70;;
19951;SDS011;10137;49.406;19.484;2023-04-25T00:53:43;3.93;;;3.47;;
19951;SDS011;10137;49.406;19.484;2023-04-25T00:56:12;5.47;;;4.97;;
19951;SDS011;10137;49.406;19.484;2023-04-25T00:58:40;4.80;;;3.57;;
19951;SDS011;10137;49.406;19.484;2023-04-25T01:01:10;3.20;;;2.77;;
19951;SDS011;10137;49.406;19.484;2023-04-25T01:03:39;4.10;;;2.93;;
19951;SDS011;10137;49.406;19.484;2023-04-25T01:06:08;2.87;;;2.20;;
19951;SDS011;10137;49.406;19.484;2023-04-25T01:08:36;2.33;;;2.00;;
19951;SDS011;10137;49.406;19.484;2023-04-25T01:11:06;2.30;;;2.00;;
19951;SDS011;10137;49.406;19.484;2023-04-25T01:13:33;2.23;;;1.90;;
19951;SDS011;10137;49.406;19.484;2023-04-25T01:16:02;2.67;;;1.43;;
19951;SDS011;10137;49.406;19.484;2023-04-25T01:18:33;1.60;;;1.40;;
19951;SDS011;10137;49.406;19.484;2023-04-25T01:21:09;1.70;;;1.40;;
19951;SDS011;10137;49.406;19.484;2023-04-25T01:23:39;2.10;;;1.50;;
19951;SDS011;10137;49.406;19.484;2023-04-25T01:26:07;1.70;;;1.60;;
19951;SDS011;10137;49.406;19.484;2023-04-25T01:28:36;1.40;;;1.20;;
19951;SDS011;10137;49.406;19.484;2023-04-25T01:31:07;2.03;;;1.50;;
19951;SDS011;10137;49.406;19.484;2023-04-25T01:33:36;1.77;;;1.63;;
19951;SDS011;10137;49.406;19.484;2023-04-25T01:36:04;1.50;;;1.40;;
19951;SDS011;10137;49.406;19.484;2023-04-25T01:38:33;4.20;;;1.70;;
19951;SDS011;10137;49.406;19.484;2023-04-25T01:41:01;1.83;;;1.60;;
19951;SDS011;10137;49.406;19.484;2023-04-25T01:43:30;1.97;;;1.80;;
19951;SDS011;10137;49.406;19.484;2023-04-25T01:45:57;1.60;;;1.50;;
19951;SDS011;10137;49.406;19.484;2023-04-25T01:48:26;1.43;;;1.30;;
19951;SDS011;10137;49.406;19.484;2023-04-25T01:50:54;1.93;;;1.70;;
19951;SDS011;10137;49.406;19.484;2023-04-25T01:53:22;2.03;;;1.73;;
19951;SDS011;10137;49.406;19.484;2023-04-25T01:55:52;1.67;;;1.57;;
19951;SDS011;10137;49.406;19.484;2023-04-25T01:58:20;2.17;;;1.70;;
19951;SDS011;10137;49.406;19.484;2023-04-25T02:00:47;1.63;;;1.53;;
19951;SDS011;10137;49.406;19.484;2023-04-25T02:03:16;1.97;;;1.60;;
19951;SDS011;10137;49.406;19.484;2023-04-25T02:05:43;1.37;;;1.27;;
19951;SDS011;10137;49.406;19.484;2023-04-25T02:08:11;2.33;;;1.57;;
19951;SDS011;10137;49.406;19.484;2023-04-25T02:10:39;1.60;;;1.30;;
19951;SDS011;10137;49.406;19.484;2023-04-25T02:13:08;2.67;;;1.90;;
19951;SDS011;10137;49.406;19.484;2023-04-25T02:15:35;2.77;;;2.43;;
19951;SDS011;10137;49.406;19.484;2023-04-25T02:18:04;1.60;;;1.50;;
19951;SDS011;10137;49.406;19.484;2023-04-25T02:20:33;1.90;;;1.67;;
19951;SDS011;10137;49.406;19.484;2023-04-25T02:23:01;1.30;;;1.20;;
19951;SDS011;10137;49.406;19.484;2023-04-25T02:25:29;1.87;;;1.30;;
19951;SDS011;10137;49.406;19.484;2023-04-25T02:27:56;1.83;;;1.67;;
19951;SDS011;10137;49.406;19.484;2023-04-25T02:30:25;1.80;;;1.70;;
19951;SDS011;10137;49.406;19.484;2023-04-25T02:32:53;2.13;;;1.93;;
19951;SDS011;10137;49.406;19.484;2023-04-25T02:35:21;2.10;;;1.87;;
19951;SDS011;10137;49.406;19.484;2023-04-25T02:37:49;2.20;;;2.00;;
19951;SDS011;10137;49.406;19.484;2023-04-25T02:40:18;3.50;;;2.70;;
19951;SDS011;10137;49.406;19.484;2023-04-25T02:42:46;1.80;;;1.50;;
19951;SDS011;10137;49.406;19.484;2023-04-25T02:45:14;3.23;;;2.77;;
19951;SDS011;10137;49.406;19.484;2023-04-25T02:47:44;8.37;;;6.20;;
19951;SDS011;10137;49.406;19.484;2023-04-25T02:50:11;3.40;;;2.50;;
19951;SDS011;10137;49.406;19.484;2023-04-25T02:52:38;2.97;;;2.50;;
19951;SDS011;10137;49.406;19.484;2023-04-25T02:55:06;2.50;;;2.30;;
19951;SDS011;10137;49.406;19.484;2023-04-25T02:57:35;3.50;;;2.60;;
19951;SDS011;10137;49.406;19.484;2023-04-25T03:00:03;3.03;;;2.50;;
19951;SDS011;10137;49.406;19.484;2023-04-25T03:02:33;4.83;;;2.60;;
19951;SDS011;10137;49.406;19.484;2023-04-25T03:05:02;3.50;;;2.60;;
19951;SDS011;10137;49.406;19.484;2023-04-25T03:07:31;4.97;;;3.60;;
19951;SDS011;10137;49.406;19.484;2023-04-25T03:09:59;8.10;;;5.63;;
19951;SDS011;10137;49.406;19.484;2023-04-25T03:12:27;10.07;;;4.63;;
19951;SDS011;10137;49.406;19.484;2023-04-25T03:14:55;6.27;;;3.80;;
19951;SDS011;10137;49.406;19.484;2023-04-25T03:17:24;5.80;;;3.53;;
19951;SDS011;10137;49.406;19.484;2023-04-25T03:19:52;4.80;;;3.13;;
19951;SDS011;10137;49.406;19.484;2023-04-25T03:22:22;7.00;;;4.20;;
19951;SDS011;10137;49.406;19.484;2023-04-25T03:24:51;3.20;;;2.90;;
19951;SDS011;10137;49.406;19.484;2023-04-25T03:27:18;2.40;;;2.00;;
19951;SDS011;10137;49.406;19.484;2023-04-25T03:29:47;1.90;;;1.70;;
19951;SDS011;10137;49.406;19.484;2023-04-25T03:32:14;2.13;;;1.50;;
19951;SDS011;10137;49.406;19.484;2023-04-25T03:34:43;1.53;;;1.27;;
19951;SDS011;10137;49.406;19.484;2023-04-25T03:37:11;5.03;;;2.33;;
19951;SDS011;10137;49.406;19.484;2023-04-25T03:39:42;3.53;;;2.10;;
19951;SDS011;10137;49.406;19.484;2023-04-25T03:42:10;5.13;;;2.67;;
19951;SDS011;10137;49.406;19.484;2023-04-25T03:44:38;6.20;;;2.77;;
19951;SDS011;10137;49.406;19.484;2023-04-25T03:47:05;4.00;;;2.83;;
19951;SDS011;10137;49.406;19.484;2023-04-25T03:49:34;1.97;;;1.40;;
19951;SDS011;10137;49.406;19.484;2023-04-25T03:52:02;1.73;;;1.50;;
19951;SDS011;10137;49.406;19.484;2023-04-25T03:54:30;2.47;;;2.27;;
19951;SDS011;10137;49.406;19.484;2023-04-25T03:56:59;3.30;;;3.00;;
19951;SDS011;10137;49.406;19.484;2023-04-25T03:59:27;2.27;;;2.07;;
19951;SDS011;10137;49.406;19.484;2023-04-25T04:01:54;3.53;;;2.87;;
19951;SDS011;10137;49.406;19.484;2023-04-25T04:04:23;1.70;;;1.50;;
19951;SDS011;10137;49.406;19.484;2023-04-25T04:06:51;4.27;;;1.80;;
19951;SDS011;10137;49.406;19.484;2023-04-25T04:09:19;2.83;;;2.17;;
19951;SDS011;10137;49.406;19.484;2023-04-25T04:11:46;2.20;;;1.60;;
19951;SDS011;10137;49.406;19.484;2023-04-25T04:14:17;3.37;;;1.60;;
19951;SDS011;10137;49.406;19.484;2023-04-25T04:16:44;1.77;;;1.40;;
19951;SDS011;10137;49.406;19.484;2023-04-25T04:19:13;1.20;;;1.10;;
19951;SDS011;10137;49.406;19.484;2023-04-25T04:21:41;0.90;;;0.90;;
19951;SDS011;10137;49.406;19.484;2023-04-25T04:24:09;2.27;;;2.00;;
19951;SDS011;10137;49.406;19.484;2023-04-25T04:26:41;1.03;;;0.93;;
19951;SDS011;10137;49.406;19.484;2023-04-25T04:29:11;0.80;;;0.80;;
19951;SDS011;10137;49.406;19.484;2023-04-25T04:31:49;1.80;;;0.70;;
19951;SDS011;10137;49.406;19.484;2023-04-25T04:34:18;1.10;;;1.00;;
19951;SDS011;10137;49.406;19.484;2023-04-25T04:36:47;0.90;;;0.90;;
19951;SDS011;10137;49.406;19.484;2023-04-25T04:39:14;2.07;;;1.30;;
19951;SDS011;10137;49.406;19.484;2023-04-25T04:41:43;1.40;;;1.20;;
19951;SDS011;10137;49.406;19.484;2023-04-25T04:44:11;1.37;;;1.10;;
19951;SDS011;10137;49.406;19.484;2023-04-25T04:46:41;1.33;;;1.20;;
19951;SDS011;10137;49.406;19.484;2023-04-25T04:49:10;1.83;;;1.40;;
19951;SDS011;10137;49.406;19.484;2023-04-25T04:51:40;1.37;;;1.27;;
19951;SDS011;10137;49.406;19.484;2023-04-25T04:54:10;1.17;;;1.07;;
19951;SDS011;10137;49.406;19.484;2023-04-25T04:56:37;1.53;;;1.10;;
19951;SDS011;10137;49.406;19.484;2023-04-25T04:59:10;1.03;;;0.93;;
19951;SDS011;10137;49.406;19.484;2023-04-25T05:01:40;1.00;;;1.00;;
19951;SDS011;10137;49.406;19.484;2023-04-25T05:04:18;1.07;;;0.97;;
19951;SDS011;10137;49.406;19.484;2023-04-25T05:06:46;1.20;;;1.00;;
19951;SDS011;10137;49.406;19.484;2023-04-25T05:09:16;1.33;;;1.23;;
19951;SDS011;10137;49.406;19.484;2023-04-25T05:11:45;0.90;;;0.90;;
19951;SDS011;10137;49.406;19.484;2023-04-25T05:14:14;1.20;;;1.10;;
19951;SDS011;10137;49.406;19.484;2023-04-25T05:16:42;1.20;;;1.10;;
19951;SDS011;10137;49.406;19.484;2023-04-25T05:19:10;4.00;;;1.67;;
19951;SDS011;10137;49.406;19.484;2023-04-25T05:21:40;1.87;;;1.63;;
19951;SDS011;10137;49.406;19.484;2023-04-25T05:24:09;1.53;;;1.43;;
19951;SDS011;10137;49.406;19.484;2023-04-25T05:26:37;1.40;;;1.30;;
19951;SDS011;10137;49.406;19.484;2023-04-25T05:29:05;1.77;;;1.37;;
19951;SDS011;10137;49.406;19.484;2023-04-25T05:31:34;1.40;;;1.30;;
19951;SDS011;10137;49.406;19.484;2023-04-25T05:34:04;2.00;;;1.40;;
19951;SDS011;10137;49.406;19.484;2023-04-25T05:36:31;2.83;;;2.00;;
19951;SDS011;10137;49.406;19.484;2023-04-25T05:39:01;2.00;;;1.57;;
19951;SDS011;10137;49.406;19.484;2023-04-25T05:41:30;3.87;;;1.80;;
19951;SDS011;10137;49.406;19.484;2023-04-25T05:43:59;2.53;;;1.50;;
19951;SDS011;10137;49.406;19.484;2023-04-25T05:46:28;1.70;;;1.60;;
19951;SDS011;10137;49.406;19.484;2023-04-25T05:48:56;2.20;;;1.50;;
19951;SDS011;10137;49.406;19.484;2023-04-25T05:51:25;2.23;;;2.03;;
19951;SDS011;10137;49.406;19.484;2023-04-25T05:53:53;1.60;;;1.50;;
19951;SDS011;10137;49.406;19.484;2023-04-25T05:56:23;2.00;;;1.70;;
19951;SDS011;10137;49.406;19.484;2023-04-25T05:58:51;1.30;;;1.20;;
19951;SDS011;10137;49.406;19.484;2023-04-25T06:01:21;1.50;;;1.40;;
19951;SDS011;10137;49.406;19.484;2023-04-25T06:03:49;1.80;;;1.50;;
19951;SDS011;10137;49.406;19.484;2023-04-25T06:06:18;1.50;;;1.40;;
19951;SDS011;10137;49.406;19.484;2023-04-25T06:08:47;2.00;;;1.80;;
19951;SDS011;10137;49.406;19.484;2023-04-25T06:11:15;3.70;;;1.83;;
19951;SDS011;10137;49.406;19.484;2023-04-25T06:13:45;3.13;;;2.10;;
19951;SDS011;10137;49.406;19.484;2023-04-25T06:16:15;7.97;;;4.47;;
19951;SDS011;10137;49.406;19.484;2023-04-25T06:18:43;8.97;;;4.87;;
19951;SDS011;10137;49.406;19.484;2023-04-25T06:21:11;15.67;;;7.70;;
19951;SDS011;10137;49.406;19.484;2023-04-25T06:23:40;8.60;;;4.60;;
19951;SDS011;10137;49.406;19.484;2023-04-25T06:26:08;3.80;;;3.20;;
19951;SDS011;10137;49.406;19.484;2023-04-25T06:28:36;4.30;;;3.70;;
19951;SDS011;10137;49.406;19.484;2023-04-25T06:31:06;4.97;;;3.73;;
19951;SDS011;10137;49.406;19.484;2023-04-25T06:33:34;4.07;;;2.90;;
19951;SDS011;10137;49.406;19.484;2023-04-25T06:36:01;4.00;;;3.10;;
19951;SDS011;10137;49.406;19.484;2023-04-25T06:38:28;3.70;;;2.90;;
19951;SDS011;10137;49.406;19.484;2023-04-25T06:40:57;6.73;;;3.60;;
19951;SDS011;10137;49.406;19.484;2023-04-25T06:43:28;5.93;;;3.10;;
19951;SDS011;10137;49.406;19.484;2023-04-25T06:46:00;4.33;;;3.10;;
19951;SDS011;10137;49.406;19.484;2023-04-25T06:48:31;5.00;;;3.43;;
19951;SDS011;10137;49.406;19.484;2023-04-25T06:50:59;6.67;;;4.40;;
19951;SDS011;10137;49.406;19.484;2023-04-25T06:53:27;8.57;;;4.50;;
19951;SDS011;10137;49.406;19.484;2023-04-25T06:55:56;4.20;;;3.03;;
19951;SDS011;10137;49.406;19.484;2023-04-25T06:58:24;2.50;;;2.20;;
19951;SDS011;10137;49.406;19.484;2023-04-25T07:00:52;3.50;;;2.90;;
19951;SDS011;10137;49.406;19.484;2023-04-25T07:03:23;3.57;;;2.40;;
19951;SDS011;10137;49.406;19.484;2023-04-25T07:05:56;5.43;;;2.60;;
19951;SDS011;10137;49.406;19.484;2023-04-25T07:08:24;4.47;;;2.23;;
19951;SDS011;10137;49.406;19.484;2023-04-25T07:10:52;2.40;;;2.13;;
19951;SDS011;10137;49.406;19.484;2023-04-25T07:13:20;3.50;;;2.30;;
19951;SDS011;10137;49.406;19.484;2023-04-25T07:15:48;3.03;;;2.10;;
19951;SDS011;10137;49.406;19.484;2023-04-25T07:18:16;2.60;;;2.10;;
19951;SDS011;10137;49.406;19.484;2023-04-25T07:20:47;3.10;;;2.50;;
19951;SDS011;10137;49.406;19.484;2023-04-25T07:23:17;2.90;;;2.40;;
19951;SDS011;10137;49.406;19.484;2023-04-25T07:25:44;4.07;;;3.10;;
19951;SDS011;10137;49.406;19.484;2023-04-25T07:28:15;4.03;;;3.13;;
19951;SDS011;10137;49.406;19.484;2023-04-25T07:30:42;3.73;;;2.93;;
19951;SDS011;10137;49.406;19.484;2023-04-25T07:33:09;3.80;;;3.13;;
19951;SDS011;10137;49.406;19.484;2023-04-25T07:35:39;4.73;;;3.20;;
19951;SDS011;10137;49.406;19.484;2023-04-25T07:38:07;5.60;;;3.70;;
19951;SDS011;10137;49.406;19.484;2023-04-25T07:40:36;4.60;;;3.73;;
19951;SDS011;10137;49.406;19.484;2023-04-25T07:43:05;4.47;;;3.63;;
19951;SDS011;10137;49.406;19.484;2023-04-25T07:45:33;4.73;;;3.80;;
19951;SDS011;10137;49.406;19.484;2023-04-25T07:48:02;4.70;;;4.17;;
19951;SDS011;10137;49.406;19.484;2023-04-25T07:50:29;5.27;;;4.20;;
19951;SDS011;10137;49.406;19.484;2023-04-25T07:52:56;8.20;;;4.53;;
19951;SDS011;10137;49.406;19.484;2023-04-25T07:55:25;6.23;;;4.93;;
19951;SDS011;10137;49.406;19.484;2023-04-25T07:57:58;4.57;;;3.97;;
19951;SDS011;10137;49.406;19.484;2023-04-25T08:00:27;10.57;;;6.53;;
19951;SDS011;10137;49.406;19.484;2023-04-25T08:02:57;6.73;;;5.20;;
19951;SDS011;10137;49.406;19.484;2023-04-25T08:05:26;5.77;;;4.83;;
19951;SDS011;10137;49.406;19.484;2023-04-25T08:07:53;5.37;;;4.87;;
19951;SDS011;10137;49.406;19.484;2023-04-25T08:10:21;5.93;;;5.17;;
19951;SDS011;10137;49.406;19.484;2023-04-25T08:12:49;5.17;;;4.43;;
19951;SDS011;10137;49.406;19.484;2023-04-25T08:15:19;5.77;;;4.10;;
19951;SDS011;10137;49.406;19.484;2023-04-25T08:17:47;6.77;;;4.90;;
19951;SDS011;10137;49.406;19.484;2023-04-25T08:20:16;9.60;;;6.40;;
19951;SDS011;10137;49.406;19.484;2023-04-25T08:22:44;5.77;;;4.67;;
19951;SDS011;10137;49.406;19.484;2023-04-25T08:25:14;6.53;;;4.57;;
19951;SDS011;10137;49.406;19.484;2023-04-25T08:27:42;7.43;;;4.50;;
19951;SDS011;10137;49.406;19.484;2023-04-25T08:30:11;7.23;;;5.30;;
19951;SDS011;10137;49.406;19.484;2023-04-25T08:32:42;7.33;;;4.87;;
19951;SDS011;10137;49.406;19.484;2023-04-25T08:35:10;6.07;;;4.70;;
19951;SDS011;10137;49.406;19.484;2023-04-25T08:37:39;6.23;;;4.67;;
19951;SDS011;10137;49.406;19.484;2023-04-25T08:40:07;5.77;;;5.07;;
19951;SDS011;10137;49.406;19.484;2023-04-25T08:42:39;5.57;;;3.93;;
19951;SDS011;10137;49.406;19.484;2023-04-25T08:45:09;6.50;;;4.93;;
19951;SDS011;10137;49.406;19.484;2023-04-25T08:47:38;5.30;;;4.60;;
19951;SDS011;10137;49.406;19.484;2023-04-25T08:50:11;5.87;;;4.60;;
19951;SDS011;10137;49.406;19.484;2023-04-25T08:52:41;4.87;;;4.27;;
19951;SDS011;10137;49.406;19.484;2023-04-25T08:55:14;4.73;;;3.90;;
19951;SDS011;10137;49.406;19.484;2023-04-25T08:57:44;4.73;;;4.00;;
19951;SDS011;10137;49.406;19.484;2023-04-25T09:00:13;4.73;;;3.37;;
19951;SDS011;10137;49.406;19.484;2023-04-25T09:02:40;4.80;;;4.00;;
19951;SDS011;10137;49.406;19.484;2023-04-25T09:05:09;5.50;;;4.33;;
19951;SDS011;10137;49.406;19.484;2023-04-25T09:07:39;5.83;;;4.57;;
19951;SDS011;10137;49.406;19.484;2023-04-25T09:10:07;6.27;;;3.67;;
19951;SDS011;10137;49.406;19.484;2023-04-25T09:12:35;4.67;;;3.93;;
19951;SDS011;10137;49.406;19.484;2023-04-25T09:15:05;4.50;;;3.97;;
19951;SDS011;10137;49.406;19.484;2023-04-25T09:17:34;5.57;;;4.10;;
19951;SDS011;10137;49.406;19.484;2023-04-25T09:20:07;4.33;;;3.93;;
19951;SDS011;10137;49.406;19.484;2023-04-25T09:22:38;6.70;;;5.10;;
19951;SDS011;10137;49.406;19.484;2023-04-25T09:25:07;5.77;;;4.53;;
19951;SDS011;10137;49.406;19.484;2023-04-25T09:27:36;3.80;;;3.40;;
19951;SDS011;10137;49.406;19.484;2023-04-25T09:30:18;4.10;;;3.70;;
19951;SDS011;10137;49.406;19.484;2023-04-25T09:32:58;4.20;;;3.47;;
19951;SDS011;10137;49.406;19.484;2023-04-25T09:35:36;10.57;;;5.93;;
19951;SDS011;10137;49.406;19.484;2023-04-25T09:38:12;4.47;;;3.83;;
19951;SDS011;10137;49.406;19.484;2023-04-25T09:40:45;4.53;;;3.40;;
19951;SDS011;10137;49.406;19.484;2023-04-25T09:43:19;19.00;;;4.73;;
19951;SDS011;10137;49.406;19.484;2023-04-25T09:45:50;5.33;;;3.90;;
19951;SDS011;10137;49.406;19.484;2023-04-25T09:48:24;5.10;;;3.67;;
19951;SDS011;10137;49.406;19.484;2023-04-25T09:53:38;6.77;;;4.67;;
19951;SDS011;10137;49.406;19.484;2023-04-25T09:56:08;4.20;;;3.67;;
19951;SDS011;10137;49.406;19.484;2023-04-25T09:58:37;5.40;;;3.93;;
19951;SDS011;10137;49.406;19.484;2023-04-25T10:01:07;4.83;;;3.60;;
19951;SDS011;10137;49.406;19.484;2023-04-25T10:03:37;6.73;;;4.23;;
19951;SDS011;10137;49.406;19.484;2023-04-25T10:06:07;4.83;;;3.60;;
19951;SDS011;10137;49.406;19.484;2023-04-25T10:08:38;4.83;;;3.63;;
19951;SDS011;10137;49.406;19.484;2023-04-25T10:11:07;4.47;;;3.70;;
19951;SDS011;10137;49.406;19.484;2023-04-25T10:13:35;4.00;;;3.20;;
19951;SDS011;10137;49.406;19.484;2023-04-25T10:16:04;5.63;;;3.60;;
19951;SDS011;10137;49.406;19.484;2023-04-25T10:18:33;5.53;;;4.00;;
19951;SDS011;10137;49.406;19.484;2023-04-25T10:21:01;6.00;;;3.80;;
19951;SDS011;10137;49.406;19.484;2023-04-25T10:23:32;5.37;;;3.60;;
19951;SDS011;10137;49.406;19.484;2023-04-25T10:26:02;5.00;;;3.00;;
19951;SDS011;10137;49.406;19.484;2023-04-25T10:28:32;5.03;;;3.53;;
19951;SDS011;10137;49.406;19.484;2023-04-25T10:31:44;7.27;;;3.87;;
19951;SDS011;10137;49.406;19.484;2023-04-25T10:34:13;4.77;;;3.77;;
19951;SDS011;10137;49.406;19.484;2023-04-25T10:36:44;5.37;;;4.40;;
19951;SDS011;10137;49.406;19.484;2023-04-25T10:39:21;5.50;;;4.20;;
19951;SDS011;10137;49.406;19.484;2023-04-25T10:41:55;4.73;;;4.00;;
19951;SDS011;10137;49.406;19.484;2023-04-25T10:44:26;5.77;;;4.17;;
19951;SDS011;10137;49.406;19.484;2023-04-25T10:47:00;5.30;;;4.77;;
19951;SDS011;10137;49.406;19.484;2023-04-25T10:49:33;6.43;;;4.30;;
19951;SDS011;10137;49.406;19.484;2023-04-25T10:52:18;4.77;;;4.30;;
19951;SDS011;10137;49.406;19.484;2023-04-25T10:54:52;5.83;;;4.03;;
19951;SDS011;10137;49.406;19.484;2023-04-25T10:57:31;5.93;;;4.53;;
19951;SDS011;10137;49.406;19.484;2023-04-25T11:00:06;5.77;;;4.63;;
19951;SDS011;10137;49.406;19.484;2023-04-25T11:02:41;5.07;;;4.57;;
19951;SDS011;10137;49.406;19.484;2023-04-25T11:05:15;6.73;;;5.00;;
19951;SDS011;10137;49.406;19.484;2023-04-25T11:07:53;7.67;;;6.00;;
19951;SDS011;10137;49.406;19.484;2023-04-25T11:10:24;8.23;;;6.00;;
19951;SDS011;10137;49.406;19.484;2023-04-25T11:12:53;9.03;;;5.10;;
19951;SDS011;10137;49.406;19.484;2023-04-25T11:15:22;6.33;;;4.80;;
19951;SDS011;10137;49.406;19.484;2023-04-25T11:17:52;7.07;;;5.10;;
19951;SDS011;10137;49.406;19.484;2023-04-25T11:20:20;5.17;;;4.27;;
19951;SDS011;10137;49.406;19.484;2023-04-25T11:22:48;7.50;;;4.97;;
19951;SDS011;10137;49.406;19.484;2023-04-25T11:25:16;6.33;;;4.50;;
19951;SDS011;10137;49.406;19.484;2023-04-25T11:27:51;4.83;;;3.90;;
19951;SDS011;10137;49.406;19.484;2023-04-25T11:30:20;6.87;;;4.23;;
19951;SDS011;10137;49.406;19.484;2023-04-25T11:32:49;5.20;;;4.70;;
19951;SDS011;10137;49.406;19.484;2023-04-25T11:35:26;5.57;;;4.70;;
19951;SDS011;10137;49.406;19.484;2023-04-25T11:37:54;7.87;;;4.77;;
19951;SDS011;10137;49.406;19.484;2023-04-25T11:40:23;6.10;;;4.83;;
19951;SDS011;10137;49.406;19.484;2023-04-25T11:42:51;6.27;;;5.13;;
19951;SDS011;10137;49.406;19.484;2023-04-25T11:45:19;5.93;;;4.90;;
19951;SDS011;10137;49.406;19.484;2023-04-25T11:47:47;7.53;;;6.13;;
19951;SDS011;10137;49.406;19.484;2023-04-25T11:50:18;6.63;;;5.23;;
19951;SDS011;10137;49.406;19.484;2023-04-25T11:52:46;5.93;;;4.70;;
19951;SDS011;10137;49.406;19.484;2023-04-25T11:55:17;7.10;;;4.37;;
19951;SDS011;10137;49.406;19.484;2023-04-25T11:57:46;5.93;;;4.80;;
19951;SDS011;10137;49.406;19.484;2023-04-25T12:00:17;6.20;;;4.00;;
19951;SDS011;10137;49.406;19.484;2023-04-25T12:02:47;5.33;;;3.77;;
19951;SDS011;10137;49.406;19.484;2023-04-25T12:05:19;4.80;;;3.90;;
19951;SDS011;10137;49.406;19.484;2023-04-25T12:07:51;5.80;;;3.97;;
19951;SDS011;10137;49.406;19.484;2023-04-25T12:10:19;7.07;;;3.70;;
19951;SDS011;10137;49.406;19.484;2023-04-25T12:12:47;5.57;;;4.17;;
19951;SDS011;10137;49.406;19.484;2023-04-25T12:15:16;4.70;;;3.70;;
19951;SDS011;10137;49.406;19.484;2023-04-25T12:17:46;4.83;;;3.67;;
19951;SDS011;10137;49.406;19.484;2023-04-25T12:20:15;3.40;;;3.10;;
19951;SDS011;10137;49.406;19.484;2023-04-25T12:22:47;4.90;;;3.60;;
19951;SDS011;10137;49.406;19.484;2023-04-25T12:28:11;4.73;;;3.70;;
19951;SDS011;10137;49.406;19.484;2023-04-25T12:33:27;4.10;;;3.50;;
19951;SDS011;10137;49.406;19.484;2023-04-25T12:35:55;8.87;;;4.77;;
19951;SDS011;10137;49.406;19.484;2023-04-25T12:38:26;4.90;;;4.20;;
19951;SDS011;10137;49.406;19.484;2023-04-25T12:40:56;3.93;;;3.13;;
19951;SDS011;10137;49.406;19.484;2023-04-25T12:43:25;5.60;;;3.07;;
19951;SDS011;10137;49.406;19.484;2023-04-25T12:45:55;4.20;;;3.50;;
19951;SDS011;10137;49.406;19.484;2023-04-25T12:48:24;5.73;;;3.70;;
19951;SDS011;10137;49.406;19.484;2023-04-25T12:50:52;6.40;;;4.00;;
19951;SDS011;10137;49.406;19.484;2023-04-25T12:53:21;6.97;;;4.50;;
19951;SDS011;10137;49.406;19.484;2023-04-25T12:55:52;5.67;;;4.63;;
19951;SDS011;10137;49.406;19.484;2023-04-25T12:58:21;7.43;;;5.00;;
19951;SDS011;10137;49.406;19.484;2023-04-25T13:00:52;9.77;;;6.17;;
19951;SDS011;10137;49.406;19.484;2023-04-25T13:03:22;6.10;;;5.03;;
19951;SDS011;10137;49.406;19.484;2023-04-25T13:05:55;9.93;;;6.60;;
19951;SDS011;10137;49.406;19.484;2023-04-25T13:08:25;9.03;;;5.93;;
19951;SDS011;10137;49.406;19.484;2023-04-25T13:10:56;7.97;;;5.50;;
19951;SDS011;10137;49.406;19.484;2023-04-25T13:13:25;6.53;;;4.83;;
19951;SDS011;10137;49.406;19.484;2023-04-25T13:15:55;7.00;;;5.00;;
19951;SDS011;10137;49.406;19.484;2023-04-25T13:18:23;7.73;;;5.00;;
19951;SDS011;10137;49.406;19.484;2023-04-25T13:20:52;7.37;;;5.10;;
19951;SDS011;10137;49.406;19.484;2023-04-25T13:23:21;6.30;;;5.17;;
19951;SDS011;10137;49.406;19.484;2023-04-25T13:25:50;8.60;;;6.60;;
19951;SDS011;10137;49.406;19.484;2023-04-25T13:28:21;9.67;;;6.23;;
19951;SDS011;10137;49.406;19.484;2023-04-25T13:30:53;12.40;;;7.37;;
19951;SDS011;10137;49.406;19.484;2023-04-25T13:33:21;7.87;;;5.90;;
19951;SDS011;10137;49.406;19.484;2023-04-25T13:35:52;11.67;;;6.27;;
19951;SDS011;10137;49.406;19.484;2023-04-25T13:38:23;9.43;;;5.80;;
19951;SDS011;10137;49.406;19.484;2023-04-25T13:40:52;7.43;;;5.50;;
19951;SDS011;10137;49.406;19.484;2023-04-25T13:43:28;8.07;;;6.37;;
19951;SDS011;10137;49.406;19.484;2023-04-25T13:45:59;9.87;;;5.73;;
19951;SDS011;10137;49.406;19.484;2023-04-25T13:48:31;9.53;;;5.20;;
19951;SDS011;10137;49.406;19.484;2023-04-25T13:50:59;8.33;;;5.10;;
19951;SDS011;10137;49.406;19.484;2023-04-25T13:53:27;6.90;;;5.40;;
19951;SDS011;10137;49.406;19.484;2023-04-25T13:55:55;10.33;;;6.50;;
19951;SDS011;10137;49.406;19.484;2023-04-25T13:58:23;6.83;;;5.13;;
19951;SDS011;10137;49.406;19.484;2023-04-25T14:00:52;7.17;;;5.20;;
19951;SDS011;10137;49.406;19.484;2023-04-25T14:03:22;9.47;;;4.70;;
19951;SDS011;10137;49.406;19.484;2023-04-25T14:05:51;8.97;;;5.67;;
19951;SDS011;10137;49.406;19.484;2023-04-25T14:08:19;7.80;;;5.17;;
19951;SDS011;10137;49.406;19.484;2023-04-25T14:10:47;10.87;;;5.17;;
19951;SDS011;10137;49.406;19.484;2023-04-25T14:13:15;8.03;;;5.77;;
19951;SDS011;10137;49.406;19.484;2023-04-25T14:15:45;10.40;;;6.80;;
19951;SDS011;10137;49.406;19.484;2023-04-25T14:18:14;9.20;;;6.17;;
19951;SDS011;10137;49.406;19.484;2023-04-25T14:20:42;8.70;;;5.50;;
19951;SDS011;10137;49.406;19.484;2023-04-25T14:23:10;11.53;;;6.00;;
19951;SDS011;10137;49.406;19.484;2023-04-25T14:25:38;10.50;;;5.80;;
19951;SDS011;10137;49.406;19.484;2023-04-25T14:28:08;9.30;;;5.73;;
19951;SDS011;10137;49.406;19.484;2023-04-25T14:30:37;8.40;;;4.80;;
19951;SDS011;10137;49.406;19.484;2023-04-25T14:33:07;7.90;;;5.03;;
19951;SDS011;10137;49.406;19.484;2023-04-25T14:35:34;11.63;;;6.43;;
19951;SDS011;10137;49.406;19.484;2023-04-25T14:38:01;8.27;;;5.00;;
19951;SDS011;10137;49.406;19.484;2023-04-25T14:40:29;7.70;;;5.13;;
19951;SDS011;10137;49.406;19.484;2023-04-25T14:42:56;6.53;;;4.47;;
19951;SDS011;10137;49.406;19.484;2023-04-25T14:45:23;5.57;;;3.97;;
19951;SDS011;10137;49.406;19.484;2023-04-25T14:47:51;7.23;;;4.57;;
19951;SDS011;10137;49.406;19.484;2023-04-25T14:50:19;11.03;;;5.97;;
19951;SDS011;10137;49.406;19.484;2023-04-25T14:52:46;8.80;;;5.63;;
19951;SDS011;10137;49.406;19.484;2023-04-25T14:55:14;14.73;;;4.30;;